Time;durP1;ratioP1;P1;durP2;ratioP2;P2;SDS_P1;SDS_P2;PMS_P1;PMS_P2;Temp;Humidity;BMP_temperature;BMP_pressure;BME280_temperature;BME280_humidity;BME280_pressure;Samples;Min_cycle;Max_cycle;Signal;HPM_P1;HPM_P2
2023/03/12 00:02:20;;;;;;;8.90;4.53;;;;;;;-3.93;96.87;96887.13;5071473;28;20044;-58
2023/03/12 00:04:46;;;;;;;10.48;4.40;;;;;;;-3.92;97.17;96880.00;5067332;28;20044;-56
2023/03/12 00:07:13;;;;;;;6.35;4.47;;;;;;;-3.98;96.81;96878.88;5076011;28;20073;-56
2023/03/12 00:09:39;;;;;;;9.23;4.25;;;;;;;-4.08;97.42;96884.38;5075128;28;20033;-57
2023/03/12 00:12:07;;;;;;;9.20;4.38;;;;;;;-4.12;98.10;96883.06;5073750;28;20052;-57
2023/03/12 00:14:35;;;;;;;9.15;3.88;;;;;;;-3.95;97.71;96885.63;5070702;28;20044;-57
2023/03/12 00:17:02;;;;;;;7.47;3.95;;;;;;;-3.88;97.18;96883.97;5074140;28;20080;-56
2023/03/12 00:19:28;;;;;;;7.25;3.97;;;;;;;-3.90;96.87;96885.13;5076386;28;20117;-58
2023/03/12 00:21:55;;;;;;;9.00;3.88;;;;;;;-3.90;96.85;96887.78;5072701;28;20125;-57
2023/03/12 00:24:22;;;;;;;7.60;4.38;;;;;;;-3.95;96.84;96885.63;5073919;28;20040;-57
2023/03/12 00:26:48;;;;;;;7.75;3.80;;;;;;;-3.95;96.49;96880.34;5069281;28;20064;-56
2023/03/12 00:29:15;;;;;;;11.15;4.60;;;;;;;-3.97;96.55;96888.47;5072463;28;20032;-56
2023/03/12 00:31:42;;;;;;;7.63;4.57;;;;;;;-3.99;96.83;96882.50;5071192;28;20043;-56
2023/03/12 00:34:09;;;;;;;6.82;3.95;;;;;;;-4.02;97.00;96874.91;5075746;28;20563;-58
2023/03/12 00:36:35;;;;;;;9.50;4.22;;;;;;;-4.02;97.18;96872.28;5079985;28;20121;-55
2023/03/12 00:39:02;;;;;;;9.68;4.38;;;;;;;-4.02;96.95;96872.28;5079446;28;20040;-57
2023/03/12 00:41:29;;;;;;;9.80;4.57;;;;;;;-3.98;96.72;96872.78;5078427;28;20043;-54
2023/03/12 00:43:56;;;;;;;7.65;3.85;;;;;;;-3.84;96.06;96871.22;5077558;28;20048;-58
2023/03/12 00:46:23;;;;;;;6.88;3.47;;;;;;;-3.73;96.01;96870.03;5080376;28;20040;-54
2023/03/12 00:48:50;;;;;;;9.95;4.75;;;;;;;-3.73;95.53;96867.38;5079264;28;20072;-56
2023/03/12 00:51:17;;;;;;;8.30;4.43;;;;;;;-3.75;95.81;96864.06;5075374;28;20097;-55
2023/03/12 00:53:43;;;;;;;10.00;5.05;;;;;;;-3.70;95.92;96873.13;5075470;28;20131;-56
2023/03/12 00:56:10;;;;;;;9.43;5.07;;;;;;;-3.70;95.89;96869.66;5075066;28;20570;-57
2023/03/12 00:58:37;;;;;;;11.23;4.70;;;;;;;-3.69;95.91;96874.78;5076975;28;20047;-56
2023/03/12 01:01:03;;;;;;;11.85;5.45;;;;;;;-3.69;96.17;96858.91;5070248;28;20594;-56
2023/03/12 01:03:30;;;;;;;8.63;4.50;;;;;;;-3.59;95.52;96863.97;5075327;28;20047;-55
2023/03/12 01:05:57;;;;;;;11.25;4.88;;;;;;;-3.56;95.18;96858.34;5074760;28;20113;-56
2023/03/12 01:08:23;;;;;;;12.15;5.00;;;;;;;-3.48;94.94;96859.28;5079268;28;20043;-54
2023/03/12 01:10:50;;;;;;;9.90;5.53;;;;;;;-3.49;94.73;96865.56;5078627;28;20802;-56
2023/03/12 01:13:17;;;;;;;10.38;5.32;;;;;;;-3.47;94.67;96858.28;5083353;28;20032;-55
2023/03/12 01:15:43;;;;;;;8.45;4.90;;;;;;;-3.33;94.07;96865.47;5063424;28;20044;-55
2023/03/12 01:18:10;;;;;;;7.57;3.97;;;;;;;-3.18;93.25;96862.06;5075737;28;20040;-58
2023/03/12 01:20:39;;;;;;;7.07;3.78;;;;;;;-2.92;92.07;96861.69;5075138;28;20048;-54
2023/03/12 01:23:06;;;;;;;7.30;4.05;;;;;;;-2.89;91.03;96868.44;5075868;28;20448;-56
2023/03/12 01:25:33;;;;;;;10.65;4.22;;;;;;;-2.99;91.88;96863.38;5079481;28;20052;-56
2023/03/12 01:28:00;;;;;;;9.90;4.78;;;;;;;-3.10;93.04;96861.19;5073197;28;20430;-55
2023/03/12 01:30:27;;;;;;;7.88;4.60;;;;;;;-3.06;93.55;96871.22;5079048;28;20044;-56
2023/03/12 01:32:53;;;;;;;8.60;4.15;;;;;;;-3.10;93.49;96864.63;5068148;28;20136;-54
2023/03/12 01:35:20;;;;;;;8.77;5.28;;;;;;;-3.09;93.43;96868.97;5073446;28;20044;-57
2023/03/12 01:37:47;;;;;;;13.25;5.15;;;;;;;-3.06;93.30;96868.59;5075221;28;20040;-58
2023/03/12 01:40:19;;;;;;;11.30;4.10;;;;;;;-3.04;92.90;96865.75;5072485;28;20102;-52
2023/03/12 01:42:53;;;;;;;10.52;4.90;;;;;;;-2.95;93.11;96862.03;5073277;28;20044;-57
2023/03/12 01:46:11;;;;;;;6.53;3.70;;;;;;;-2.82;92.67;96858.78;5075779;28;20036;-55
2023/03/12 01:48:44;;;;;;;8.60;4.63;;;;;;;-2.74;92.57;96863.19;5019311;28;20052;-53
2023/03/12 01:51:14;;;;;;;7.97;4.50;;;;;;;-2.76;92.57;96858.06;5074742;28;20060;-57
2023/03/12 01:53:45;;;;;;;9.48;4.20;;;;;;;-2.77;92.87;96855.59;5077485;28;20051;-57
2023/03/12 01:56:15;;;;;;;6.15;3.70;;;;;;;-2.85;94.44;96851.19;5075258;28;20579;-57
2023/03/12 01:58:46;;;;;;;10.02;3.92;;;;;;;-2.88;94.14;96854.19;5060292;28;20036;-55
2023/03/12 02:01:16;;;;;;;6.65;4.18;;;;;;;-2.89;94.19;96860.50;5079881;28;20051;-52
2023/03/12 02:03:50;;;;;;;6.53;3.90;;;;;;;-2.94;94.80;96854.91;5074698;28;20040;-57
2023/03/12 02:06:28;;;;;;;10.43;4.55;;;;;;;-2.90;94.74;96861.50;5083189;28;20039;-55
2023/03/12 02:08:56;;;;;;;7.70;4.43;;;;;;;-2.93;94.83;96864.50;5082526;28;20042;-58
2023/03/12 02:11:22;;;;;;;7.57;3.80;;;;;;;-2.87;94.26;96861.16;5085234;28;20066;-57
2023/03/12 02:13:49;;;;;;;9.82;5.18;;;;;;;-2.83;94.44;96854.50;5077341;28;20071;-57
2023/03/12 02:16:16;;;;;;;12.45;4.63;;;;;;;-2.81;94.38;96851.66;5072209;28;20040;-55
2023/03/12 02:18:44;;;;;;;8.13;4.30;;;;;;;-2.73;94.16;96848.13;5082614;28;20123;-57
2023/03/12 02:21:23;;;;;;;10.73;4.47;;;;;;;-2.64;93.54;96844.38;5077598;28;20036;-55
2023/03/12 02:24:24;;;;;;;9.30;4.15;;;;;;;-2.65;92.98;96843.56;5076252;28;20052;-55
2023/03/12 02:26:51;;;;;;;7.43;3.83;;;;;;;-2.68;93.28;96845.75;5081605;28;20653;-57
2023/03/12 02:29:17;;;;;;;7.65;4.15;;;;;;;-2.68;93.25;96845.75;5071517;28;20168;-55
2023/03/12 02:31:50;;;;;;;8.35;4.10;;;;;;;-2.66;93.23;96841.09;5073735;28;20051;-55
2023/03/12 02:34:17;;;;;;;6.30;3.50;;;;;;;-2.53;91.95;96843.94;5063533;28;20040;-55
2023/03/12 02:36:46;;;;;;;6.32;3.15;;;;;;;-2.45;91.35;96845.69;5078617;28;20668;-57
2023/03/12 02:39:13;;;;;;;7.20;4.13;;;;;;;-2.36;90.60;96847.25;5069480;28;20048;-56
2023/03/12 02:41:44;;;;;;;6.73;3.93;;;;;;;-2.29;90.33;96849.19;5071793;28;20131;-58
2023/03/12 02:44:39;;;;;;;8.25;3.58;;;;;;;-2.16;89.74;96851.16;5071889;28;20036;-56
2023/03/12 02:47:06;;;;;;;8.57;3.33;;;;;;;-2.17;89.49;96847.72;5059987;28;20032;-58
2023/03/12 02:49:33;;;;;;;7.03;2.95;;;;;;;-2.16;90.72;96851.16;5074700;28;20039;-58
2023/03/12 02:52:02;;;;;;;6.65;3.40;;;;;;;-2.09;90.87;96844.13;5066089;28;20051;-57
2023/03/12 02:54:29;;;;;;;8.68;3.28;;;;;;;-2.11;90.05;96846.97;5075758;28;20040;-58
2023/03/12 02:56:55;;;;;;;8.52;3.70;;;;;;;-2.04;90.34;96846.22;5070444;28;20035;-58
2023/03/12 02:59:25;;;;;;;8.10;4.22;;;;;;;-1.98;90.24;96845.50;5072205;28;20124;-58
2023/03/12 03:01:56;;;;;;;7.53;3.75;;;;;;;-2.07;90.11;96841.31;5068317;28;20111;-58
2023/03/12 03:04:24;;;;;;;6.43;3.22;;;;;;;-1.83;90.65;96837.50;5074755;28;20105;-58
2023/03/12 03:06:51;;;;;;;6.68;3.88;;;;;;;-2.03;89.46;96837.28;5070765;28;20032;-58
2023/03/12 03:09:18;;;;;;;8.60;3.80;;;;;;;-2.36;91.74;96833.19;5070613;28;20036;-58
2023/03/12 03:11:44;;;;;;;8.40;5.63;;;;;;;-2.55;93.27;96829.22;5071590;28;20044;-58
2023/03/12 03:14:12;;;;;;;8.98;4.20;;;;;;;-2.64;93.84;96824.00;5069531;28;20051;-56
2023/03/12 03:16:38;;;;;;;7.95;5.05;;;;;;;-2.57;93.74;96832.06;5072278;28;20040;-58
2023/03/12 03:19:05;;;;;;;10.25;5.05;;;;;;;-2.45;93.22;96829.78;5075583;28;20032;-58
2023/03/12 03:21:34;;;;;;;6.53;4.07;;;;;;;-2.27;92.48;96821.47;5071175;28;20090;-56
2023/03/12 03:24:00;;;;;;;10.13;4.65;;;;;;;-2.19;91.75;96830.31;5072463;28;20082;-58
2023/03/12 03:26:27;;;;;;;9.40;4.43;;;;;;;-2.19;92.09;96841.75;5077014;28;20414;-57
2023/03/12 03:28:54;;;;;;;15.10;4.15;;;;;;;-2.24;92.06;96828.22;5073527;28;20090;-58
2023/03/12 03:31:21;;;;;;;8.80;4.50;;;;;;;-2.14;92.32;96828.75;5076098;28;20081;-56
2023/03/12 03:33:47;;;;;;;7.57;3.92;;;;;;;-2.05;92.31;96834.81;5076594;28;20737;-58
2023/03/12 03:36:14;;;;;;;10.68;4.07;;;;;;;-2.13;92.94;96827.75;5075690;28;20074;-58
2023/03/12 03:38:49;;;;;;;7.47;4.07;;;;;;;-2.00;92.31;96829.75;5069498;28;20093;-58
2023/03/12 03:41:18;;;;;;;5.75;3.17;;;;;;;-2.00;92.65;96829.75;5078322;28;20039;-58
2023/03/12 03:43:46;;;;;;;6.80;3.45;;;;;;;-2.02;92.84;96829.13;5070970;28;20047;-57
2023/03/12 03:46:14;;;;;;;11.02;4.82;;;;;;;-2.09;92.94;96826.38;5076744;28;20141;-55
2023/03/12 03:48:45;;;;;;;9.25;3.72;;;;;;;-2.08;93.62;96819.25;5079707;28;20166;-56
2023/03/12 03:51:14;;;;;;;9.13;4.13;;;;;;;-1.99;92.15;96812.81;5073188;28;20032;-57
2023/03/12 03:53:44;;;;;;;8.70;3.50;;;;;;;-1.83;91.94;96801.16;5067566;28;20040;-55
2023/03/12 03:56:13;;;;;;;8.05;3.28;;;;;;;-1.71;91.08;96800.69;5075804;28;20145;-57
2023/03/12 03:58:44;;;;;;;8.30;3.13;;;;;;;-1.59;89.73;96801.84;5070449;28;20127;-57
2023/03/12 04:01:13;;;;;;;8.32;3.05;;;;;;;-1.52;90.17;96795.78;5072546;28;20104;-57
2023/03/12 04:03:41;;;;;;;9.23;3.72;;;;;;;-1.38;89.63;96802.88;5070761;28;20040;-53
2023/03/12 04:06:08;;;;;;;8.40;2.85;;;;;;;-1.26;88.67;96802.38;5074361;28;20044;-53
2023/03/12 04:08:36;;;;;;;7.03;2.80;;;;;;;-1.09;87.38;96805.56;5074468;28;20097;-54
2023/03/12 04:11:10;;;;;;;6.95;2.50;;;;;;;-1.00;86.46;96815.03;5078648;28;20513;-57
2023/03/12 04:13:37;;;;;;;6.43;3.10;;;;;;;-1.07;87.47;96800.91;5075862;28;20060;-56
2023/03/12 04:16:05;;;;;;;9.55;3.72;;;;;;;-1.09;87.72;96801.09;5067582;28;20415;-56
2023/03/12 04:18:34;;;;;;;6.05;2.78;;;;;;;-0.89;86.38;96797.75;5075394;28;20206;-55
2023/03/12 04:21:06;;;;;;;11.95;3.22;;;;;;;-0.86;85.53;96802.69;5068514;28;20479;-57
2023/03/12 04:23:33;;;;;;;4.78;2.58;;;;;;;-0.63;84.50;96814.09;5070334;28;20039;-58
2023/03/12 04:26:00;;;;;;;6.72;3.00;;;;;;;-0.57;83.85;96802.69;5072562;28;20301;-57
2023/03/12 04:28:28;;;;;;;8.63;3.03;;;;;;;-0.55;83.90;96808.63;5057343;28;20227;-56
2023/03/12 04:31:00;;;;;;;6.53;2.97;;;;;;;-0.64;84.09;96805.28;5074287;28;20046;-57
2023/03/12 04:33:34;;;;;;;5.88;2.75;;;;;;;-0.51;83.82;96809.88;5072670;28;20048;-58
2023/03/12 04:36:01;;;;;;;7.13;3.00;;;;;;;-0.59;84.36;96810.03;5076064;28;20055;-57
2023/03/12 04:38:28;;;;;;;8.07;3.15;;;;;;;-0.54;84.02;96807.63;5071568;28;20115;-56
2023/03/12 04:41:04;;;;;;;5.78;3.20;;;;;;;-0.61;84.57;96802.25;5066978;28;20110;-58
2023/03/12 04:43:32;;;;;;;6.65;2.78;;;;;;;-0.61;85.34;96804.91;5071137;28;20046;-58
2023/03/12 04:45:59;;;;;;;7.22;2.75;;;;;;;-0.48;84.62;96812.13;5070179;28;20041;-55
2023/03/12 04:48:26;;;;;;;6.18;2.78;;;;;;;-0.58;85.61;96814.34;5074893;28;20060;-57
2023/03/12 04:50:53;;;;;;;8.68;3.50;;;;;;;-0.57;85.63;96805.34;5072720;28;20048;-56
2023/03/12 04:53:20;;;;;;;6.82;2.85;;;;;;;-0.56;86.07;96804.31;5081498;28;20048;-53
2023/03/12 04:55:48;;;;;;;5.55;2.63;;;;;;;-0.59;86.47;96810.03;5075485;28;20050;-56
2023/03/12 04:58:16;;;;;;;5.35;2.85;;;;;;;-0.60;86.87;96808.38;5078087;28;20414;-54
2023/03/12 05:00:43;;;;;;;6.22;3.53;;;;;;;-0.62;87.30;96810.41;5074508;28;20040;-57
2023/03/12 05:03:11;;;;;;;9.30;3.45;;;;;;;-0.57;87.27;96805.34;5076742;28;20058;-53
2023/03/12 05:05:37;;;;;;;7.95;3.03;;;;;;;-0.61;87.77;96802.25;5072741;28;20036;-58
2023/03/12 05:08:04;;;;;;;6.28;3.33;;;;;;;-0.61;87.74;96801.41;5078842;28;20067;-52
2023/03/12 05:10:33;;;;;;;8.10;2.80;;;;;;;-0.56;88.27;96804.31;5066970;28;20037;-57
2023/03/12 05:12:59;;;;;;;8.30;3.25;;;;;;;-0.46;88.14;96796.81;5063824;28;20109;-56
2023/03/12 05:15:26;;;;;;;14.02;3.63;;;;;;;-0.37;88.33;96792.16;5071168;28;20129;-55
2023/03/12 05:17:53;;;;;;;12.70;3.78;;;;;;;-0.08;86.66;96797.44;5071491;28;20139;-55
2023/03/12 05:20:20;;;;;;;7.72;3.13;;;;;;;0.09;85.95;96803.22;5068491;28;20103;-55
2023/03/12 05:22:47;;;;;;;6.90;3.55;;;;;;;0.05;87.31;96800.16;5077312;28;20071;-57
2023/03/12 05:25:15;;;;;;;5.55;2.90;;;;;;;-0.03;88.60;96803.78;5073588;28;20058;-56
2023/03/12 05:27:41;;;;;;;8.07;3.50;;;;;;;-0.02;89.13;96796.63;5082228;28;20055;-57
2023/03/12 05:30:08;;;;;;;5.55;3.13;;;;;;;-0.04;90.39;96806.66;5071945;28;20070;-57
2023/03/12 05:32:36;;;;;;;6.03;3.97;;;;;;;-0.14;92.33;96805.16;5076042;28;20068;-56
2023/03/12 05:35:03;;;;;;;7.25;3.88;;;;;;;-0.12;93.38;96810.28;5072794;28;20082;-56
2023/03/12 05:37:30;;;;;;;6.97;3.97;;;;;;;-0.12;93.37;96807.63;5079083;28;20043;-55
2023/03/12 05:39:59;;;;;;;8.35;3.92;;;;;;;-0.15;93.96;96811.50;5079965;28;20552;-57
2023/03/12 05:42:26;;;;;;;11.48;4.50;;;;;;;-0.17;95.25;96805.59;5075221;28;20040;-57
2023/03/12 05:44:55;;;;;;;10.23;5.32;;;;;;;-0.26;97.96;96812.06;5073852;28;20040;-57
2023/03/12 05:47:21;;;;;;;12.52;5.72;;;;;;;-0.24;100.00;96811.88;5072131;28;20072;-57
2023/03/12 05:49:48;;;;;;;12.75;5.47;;;;;;;-0.24;100.00;96815.34;5071938;28;20032;-58
2023/03/12 05:52:15;;;;;;;9.02;5.28;;;;;;;-0.29;100.00;96812.47;5075164;28;20103;-55
2023/03/12 05:54:42;;;;;;;9.10;4.93;;;;;;;-0.33;100.00;96808.56;5073228;28;20508;-58
2023/03/12 05:57:09;;;;;;;12.25;4.85;;;;;;;-0.40;100.00;96809.31;5076525;28;20047;-58
2023/03/12 05:59:36;;;;;;;9.13;4.72;;;;;;;-0.47;100.00;96813.81;5069986;28;20066;-58
2023/03/12 06:02:03;;;;;;;14.30;4.65;;;;;;;-0.47;100.00;96807.66;5070576;28;20048;-54
2023/03/12 06:04:31;;;;;;;8.52;5.05;;;;;;;-0.36;100.00;96809.78;5068804;28;20040;-54
2023/03/12 06:06:57;;;;;;;10.85;4.95;;;;;;;-0.14;100.00;96807.03;5070634;28;20534;-55
2023/03/12 06:09:25;;;;;;;9.43;4.72;;;;;;;-0.10;100.00;96802.94;5076158;28;20040;-57
2023/03/12 06:11:52;;;;;;;11.68;4.72;;;;;;;-0.21;100.00;96806.16;5074841;28;20048;-58
2023/03/12 06:14:18;;;;;;;11.15;5.20;;;;;;;-0.14;100.00;96807.81;5075551;28;20040;-56
2023/03/12 06:16:45;;;;;;;9.77;5.03;;;;;;;-0.17;100.00;96805.59;5078512;28;20087;-58
2023/03/12 06:19:15;;;;;;;8.40;4.80;;;;;;;-0.16;100.00;96803.72;5072431;28;20050;-56
2023/03/12 06:21:45;;;;;;;9.32;5.00;;;;;;;-0.17;100.00;96792.28;5077078;28;20127;-54
2023/03/12 06:24:11;;;;;;;9.43;4.68;;;;;;;-0.22;100.00;96796.53;5071533;28;20044;-56
2023/03/12 06:26:42;;;;;;;10.40;5.25;;;;;;;-0.19;100.00;96788.97;5075611;28;20591;-57
2023/03/12 06:29:09;;;;;;;15.07;4.72;;;;;;;-0.19;100.00;96788.97;5075658;28;20036;-58
2023/03/12 06:31:36;;;;;;;11.20;5.15;;;;;;;-0.22;100.00;96786.69;5074219;28;20637;-55
2023/03/12 06:34:05;;;;;;;13.27;6.07;;;;;;;-0.07;100.00;96785.75;5078497;28;20115;-58
2023/03/12 06:36:31;;;;;;;11.32;5.18;;;;;;;0.06;100.00;96780.47;5072791;28;20048;-57
2023/03/12 06:38:58;;;;;;;10.13;5.45;;;;;;;0.20;100.00;96777.88;5082580;28;20128;-56
2023/03/12 06:41:24;;;;;;;11.95;5.68;;;;;;;0.29;100.00;96781.19;5081461;28;20046;-58
2023/03/12 06:43:51;;;;;;;9.23;5.30;;;;;;;0.27;100.00;96781.38;5080059;28;20100;-57
2023/03/12 06:46:20;;;;;;;8.23;4.57;;;;;;;0.31;100.00;96781.78;5084379;28;20442;-59
2023/03/12 06:48:47;;;;;;;7.38;3.92;;;;;;;0.38;100.00;96782.63;5075250;28;20040;-58
2023/03/12 06:51:16;;;;;;;10.52;4.95;;;;;;;0.54;100.00;96785.94;5075846;28;20123;-58
2023/03/12 06:53:44;;;;;;;10.73;5.47;;;;;;;0.63;100.00;96784.75;5076794;28;20036;-57
2023/03/12 06:56:11;;;;;;;8.50;4.80;;;;;;;0.72;100.00;96791.50;5085666;28;20044;-56
2023/03/12 06:58:38;;;;;;;12.70;4.93;;;;;;;0.79;100.00;96788.84;5073863;28;20040;-58
2023/03/12 07:01:05;;;;;;;8.45;4.72;;;;;;;0.89;100.00;96799.13;5079079;28;20040;-59
2023/03/12 07:03:32;;;;;;;8.18;4.22;;;;;;;0.95;100.00;96786.81;5074183;28;20044;-56
2023/03/12 07:05:59;;;;;;;7.32;3.90;;;;;;;1.05;100.00;96787.22;5076088;28;20131;-56
2023/03/12 07:08:29;;;;;;;7.82;4.50;;;;;;;1.04;100.00;96796.25;5075327;28;20465;-58
2023/03/12 07:10:59;;;;;;;8.27;4.03;;;;;;;1.09;100.00;96788.44;5074799;28;20049;-51
2023/03/12 07:13:28;;;;;;;7.97;4.90;;;;;;;1.07;100.00;96789.69;5074147;28;20688;-51
2023/03/12 07:15:54;;;;;;;8.80;4.97;;;;;;;1.09;100.00;96795.63;5073996;28;20045;-53
2023/03/12 07:18:21;;;;;;;10.63;4.80;;;;;;;1.02;100.00;96798.28;5074423;28;20035;-54
2023/03/12 07:20:47;;;;;;;10.55;5.03;;;;;;;0.99;100.00;96804.84;5071474;28;20541;-53
2023/03/12 07:23:14;;;;;;;11.73;5.22;;;;;;;1.12;100.00;96805.88;5068993;28;20052;-51
2023/03/12 07:25:42;;;;;;;10.02;5.53;;;;;;;1.13;100.00;96807.50;5071898;28;20054;-51
2023/03/12 07:28:10;;;;;;;10.02;5.60;;;;;;;1.15;100.00;96802.81;5072589;28;20044;-57
2023/03/12 07:30:37;;;;;;;11.52;5.35;;;;;;;1.21;100.00;96801.16;5078447;28;20107;-51
2023/03/12 07:33:06;;;;;;;10.70;4.72;;;;;;;1.25;100.00;96797.06;5070881;28;20089;-52
2023/03/12 07:35:33;;;;;;;8.85;4.70;;;;;;;1.43;100.00;96797.25;5068869;28;20136;-51
2023/03/12 07:38:01;;;;;;;9.45;4.63;;;;;;;1.49;100.00;96800.09;5069280;28;20048;-50
2023/03/12 07:40:27;;;;;;;8.18;4.53;;;;;;;1.51;100.00;96801.53;5081367;28;20044;-53
2023/03/12 07:42:54;;;;;;;9.63;4.78;;;;;;;1.56;100.00;96798.25;5075587;28;20117;-51
2023/03/12 07:45:21;;;;;;;8.02;5.15;;;;;;;1.65;100.00;96789.00;5080860;28;20770;-49
2023/03/12 07:47:48;;;;;;;10.48;5.63;;;;;;;1.67;100.00;96794.91;5077956;28;20454;-54
2023/03/12 07:50:16;;;;;;;9.00;5.32;;;;;;;1.80;100.00;96799.41;5071941;28;20040;-59
2023/03/12 07:52:44;;;;;;;8.60;5.03;;;;;;;1.91;100.00;96792.59;5076417;28;20661;-59
2023/03/12 07:55:10;;;;;;;9.73;5.30;;;;;;;2.05;100.00;96798.72;5080315;28;20098;-59
2023/03/12 07:57:37;;;;;;;9.30;5.38;;;;;;;2.09;100.00;96796.44;5054743;28;20652;-59
2023/03/12 08:00:09;;;;;;;9.10;4.60;;;;;;;2.09;100.00;96799.13;5055865;28;20051;-58
2023/03/12 08:02:38;;;;;;;9.50;6.10;;;;;;;2.07;100.00;96803.88;5072324;28;20496;-59
2023/03/12 08:05:05;;;;;;;9.55;5.70;;;;;;;2.13;100.00;96803.00;5075056;28;20068;-58
2023/03/12 08:07:33;;;;;;;9.60;5.65;;;;;;;2.05;100.00;96808.56;5074840;28;20090;-59
2023/03/12 08:10:02;;;;;;;8.65;5.75;;;;;;;2.12;100.00;96814.72;5079152;28;20047;-58
2023/03/12 08:12:29;;;;;;;13.13;6.72;;;;;;;2.08;100.00;96810.84;5070481;28;20751;-54
2023/03/12 08:14:56;;;;;;;11.60;6.40;;;;;;;1.99;100.00;96809.44;5078178;28;20082;-59
2023/03/12 08:17:22;;;;;;;11.23;5.78;;;;;;;2.10;100.00;96816.78;5071940;28;20089;-56
2023/03/12 08:19:49;;;;;;;10.73;6.75;;;;;;;2.22;100.00;96824.97;5068606;28;20520;-59
2023/03/12 08:22:16;;;;;;;10.73;6.68;;;;;;;2.19;100.00;96823.53;5075371;28;20090;-57
2023/03/12 08:24:43;;;;;;;9.95;6.22;;;;;;;2.24;100.00;96817.53;5076038;28;20044;-59
2023/03/12 08:27:11;;;;;;;11.98;6.07;;;;;;;2.37;100.00;96824.69;5077938;28;20069;-58
2023/03/12 08:29:39;;;;;;;9.80;6.03;;;;;;;2.52;100.00;96834.28;5067787;28;20052;-58
2023/03/12 08:32:06;;;;;;;12.43;6.70;;;;;;;2.53;100.00;96834.06;5078105;28;20051;-58
2023/03/12 08:34:33;;;;;;;11.95;6.35;;;;;;;2.48;100.00;96833.88;5067496;28;20126;-58
2023/03/12 08:37:00;;;;;;;10.20;6.45;;;;;;;2.55;100.00;96831.19;5068633;28;20051;-59
2023/03/12 08:39:26;;;;;;;11.43;6.78;;;;;;;2.59;100.00;96829.72;5070741;28;20507;-59
2023/03/12 08:41:54;;;;;;;13.27;7.55;;;;;;;2.61;100.00;96814.28;5076001;28;20048;-59
2023/03/12 08:44:22;;;;;;;10.13;6.82;;;;;;;2.76;100.00;96821.19;5071504;28;20036;-58
2023/03/12 08:46:49;;;;;;;13.35;6.68;;;;;;;2.78;100.00;96819.13;5073205;28;20504;-58
2023/03/12 08:49:16;;;;;;;10.65;6.35;;;;;;;2.89;100.00;96815.75;5067775;28;20120;-59
2023/03/12 08:51:42;;;;;;;13.02;6.57;;;;;;;3.08;100.00;96827.34;5064250;28;20531;-59
2023/03/12 08:54:09;;;;;;;10.48;6.38;;;;;;;3.02;100.00;96814.84;5081197;28;20081;-59
2023/03/12 08:56:41;;;;;;;12.63;7.68;;;;;;;3.12;100.00;96814.34;5076023;28;20040;-58
2023/03/12 08:59:09;;;;;;;9.20;5.82;;;;;;;3.22;100.00;96817.38;5083618;28;20045;-58
2023/03/12 09:01:36;;;;;;;11.15;6.30;;;;;;;3.25;100.00;96811.56;5071707;28;20032;-59
2023/03/12 09:04:04;;;;;;;10.32;6.35;;;;;;;3.34;100.00;96806.78;5076353;28;20411;-58
2023/03/12 09:06:32;;;;;;;9.73;5.80;;;;;;;3.22;100.00;96817.38;5079874;28;20055;-59
2023/03/12 09:09:03;;;;;;;10.48;5.97;;;;;;;3.40;100.00;96814.97;5077381;28;20062;-58
2023/03/12 09:11:32;;;;;;;17.80;10.10;;;;;;;3.35;100.00;96811.06;5072058;28;20063;-59
2023/03/12 09:13:59;;;;;;;13.30;6.70;;;;;;;3.55;100.00;96822.66;5077009;28;20040;-58
2023/03/12 09:16:46;;;;;;;11.65;7.13;;;;;;;3.64;100.00;96819.47;5077105;28;20653;-58
2023/03/12 09:19:14;;;;;;;12.25;6.80;;;;;;;3.81;100.00;96815.38;5078031;28;20054;-59
2023/03/12 09:21:40;;;;;;;9.18;5.57;;;;;;;3.96;100.00;96826.56;5080883;28;20032;-58
2023/03/12 09:24:07;;;;;;;12.35;6.75;;;;;;;3.97;100.00;96828.19;5072716;28;20056;-59
2023/03/12 09:26:33;;;;;;;13.80;6.70;;;;;;;3.97;100.00;96830.88;5077830;28;20049;-58
2023/03/12 09:29:00;;;;;;;13.68;6.22;;;;;;;4.11;100.00;96831.56;5083567;28;20040;-58
2023/03/12 09:31:27;;;;;;;11.90;5.85;;;;;;;4.10;100.00;96827.25;5074862;28;20093;-59
2023/03/12 09:33:53;;;;;;;15.15;8.23;;;;;;;4.22;100.00;96829.16;5079229;28;20040;-59
2023/03/12 09:36:20;;;;;;;10.07;5.72;;;;;;;4.40;100.00;96831.84;5083785;28;20036;-59
2023/03/12 09:38:46;;;;;;;13.50;6.88;;;;;;;4.52;100.00;96836.41;5076504;28;20048;-59
2023/03/12 09:41:19;;;;;;;12.88;8.02;;;;;;;4.64;100.00;96839.19;5079318;28;20032;-59
2023/03/12 09:43:55;;;;;;;11.93;5.90;;;;;;;4.91;100.00;96833.44;5072496;28;20176;-59
2023/03/12 09:47:07;;;;;;;11.02;5.40;;;;;;;5.09;100.00;96837.91;5081485;28;20040;-57
2023/03/12 09:49:40;;;;;;;13.60;7.57;;;;;;;5.21;100.00;96844.09;5075189;28;20052;-56
2023/03/12 09:52:19;;;;;;;10.85;6.63;;;;;;;5.34;100.00;96837.72;5077849;28;20040;-59
2023/03/12 09:55:06;;;;;;;11.20;7.07;;;;;;;5.39;100.00;96834.34;5078381;28;20055;-59
2023/03/12 09:57:33;;;;;;;8.50;4.30;;;;;;;5.52;100.00;96848.59;5078692;28;20503;-59
2023/03/12 10:00:00;;;;;;;5.25;3.22;;;;;;;5.69;100.00;96843.34;5073374;28;20063;-59
2023/03/12 10:02:57;;;;;;;8.23;4.60;;;;;;;5.62;100.00;96843.47;5089291;28;20052;-58
2023/03/12 10:05:46;;;;;;;4.68;2.45;;;;;;;6.09;100.00;96845.34;5073924;28;20071;-59
2023/03/12 10:08:25;;;;;;;4.63;2.40;;;;;;;6.28;100.00;96839.00;5079015;28;20060;-59
2023/03/12 10:11:04;;;;;;;6.65;3.78;;;;;;;6.20;100.00;96848.25;5079752;28;20044;-59
2023/03/12 10:13:43;;;;;;;6.65;4.15;;;;;;;6.29;100.00;96854.91;5078706;28;20076;-58
2023/03/12 10:16:15;;;;;;;6.60;2.45;;;;;;;6.31;100.00;96860.88;5081518;28;20055;-59
2023/03/12 10:19:16;;;;;;;5.93;2.08;;;;;;;6.48;100.00;96858.25;5073859;28;20055;-60
2023/03/12 10:21:57;;;;;;;7.70;4.25;;;;;;;6.49;100.00;96862.56;5076676;28;20093;-59
2023/03/12 10:24:49;;;;;;;5.15;2.83;;;;;;;6.48;100.00;96866.31;5076199;28;20043;-59
2023/03/12 10:27:17;;;;;;;3.87;1.90;;;;;;;6.50;100.00;96877.63;5077537;28;20544;-59
2023/03/12 10:29:47;;;;;;;6.60;3.58;;;;;;;6.48;100.00;96874.38;5072559;28;20374;-60
2023/03/12 10:32:26;;;;;;;3.90;1.83;;;;;;;6.62;100.00;96884.84;5073429;28;20036;-61
2023/03/12 10:34:57;;;;;;;3.35;1.60;;;;;;;6.71;100.00;96886.13;5075900;28;20055;-59
2023/03/12 10:37:47;;;;;;;5.70;1.40;;;;;;;6.73;100.00;96893.94;5076966;28;20044;-60
2023/03/12 10:40:22;;;;;;;2.25;1.30;;;;;;;6.74;100.00;96887.50;5077990;28;20553;-60
2023/03/12 10:42:49;;;;;;;2.90;1.13;;;;;;;6.76;100.00;96897.00;5077259;28;20475;-58
2023/03/12 10:45:41;;;;;;;3.67;1.40;;;;;;;6.78;100.00;96898.63;5076630;28;20127;-59
2023/03/12 10:48:10;;;;;;;3.22;1.63;;;;;;;6.74;100.00;96901.78;5081161;28;20044;-58
2023/03/12 10:50:39;;;;;;;4.93;1.70;;;;;;;6.80;100.00;96904.56;5084028;28;20050;-60
2023/03/12 10:53:30;;;;;;;3.85;1.67;;;;;;;6.80;100.00;96904.56;5083906;28;20048;-58
2023/03/12 10:55:59;;;;;;;5.65;1.52;;;;;;;6.84;100.00;96911.13;5077598;28;20036;-58
2023/03/12 10:58:30;;;;;;;3.92;1.55;;;;;;;7.01;100.00;96909.28;5084190;28;20040;-60
2023/03/12 11:00:58;;;;;;;5.75;2.53;;;;;;;7.00;100.00;96910.34;5065773;28;20124;-59
2023/03/12 11:03:26;;;;;;;5.15;1.52;;;;;;;7.17;100.00;96904.19;5069897;28;20059;-57
2023/03/12 11:05:58;;;;;;;4.82;1.77;;;;;;;7.25;100.00;96909.19;5073782;28;20048;-60
2023/03/12 11:08:34;;;;;;;6.32;1.80;;;;;;;7.31;100.00;96910.13;5075687;28;20047;-59
2023/03/12 11:11:02;;;;;;;5.47;1.55;;;;;;;7.41;100.00;96909.47;5072377;28;20040;-60
2023/03/12 11:13:40;;;;;;;14.93;8.07;;;;;;;7.42;100.00;96911.91;5077417;28;20105;-59
2023/03/12 11:16:16;;;;;;;9.23;2.38;;;;;;;7.46;100.00;96916.81;5069363;28;20083;-60
2023/03/12 11:19:00;;;;;;;3.10;1.33;;;;;;;7.62;100.00;96912.50;5069626;28;20059;-58
2023/03/12 11:21:31;;;;;;;3.97;1.67;;;;;;;7.68;100.00;96898.88;5080913;28;20062;-59
2023/03/12 11:23:58;;;;;;;8.40;1.65;;;;;;;7.94;100.00;96906.53;5073569;28;20048;-59
2023/03/12 11:26:32;;;;;;;2.67;1.13;;;;;;;8.08;100.00;96909.72;5068437;28;20041;-59
2023/03/12 11:29:17;;;;;;;4.38;1.10;;;;;;;8.32;100.00;96917.59;5076779;28;20067;-59
2023/03/12 11:31:56;;;;;;;3.20;1.17;;;;;;;8.42;100.00;96911.53;5073675;28;20036;-58
2023/03/12 11:34:27;;;;;;;5.60;1.27;;;;;;;8.39;100.00;96907.44;5071950;28;20040;-59
2023/03/12 11:37:20;;;;;;;2.65;1.02;;;;;;;8.24;100.00;96909.94;5080676;28;20109;-59
2023/03/12 11:40:08;;;;;;;4.65;1.25;;;;;;;7.97;100.00;96916.00;5078363;28;20045;-58
2023/03/12 11:42:55;;;;;;;3.17;1.10;;;;;;;7.92;100.00;96917.56;5072650;28;20040;-60